Site contains unofficial IBTrACS data. Visit the IBTrACS Website to access archived data.

1877 Tropical Storm NOT_NAMED (1877237N30302)


IBTrACS version v04r00. Visit IBTrACS website for data access.
Please direct all questions to the IBTrACS Q and A forum

Storm track - Intensity - Wind Radii - Intensity Data - Source Data - All data

Summary Information

Storm ID 1877237N30302
Start Aug 24 12Z
Max Intensity 45 kt (Aug 26 12Z)
End Aug 30 12Z
ATCF IDs
Track status Best track data.

Storm track plot

Map of storm track

Intensity plots

Map of storm track

Radial wind information

No radial wind information for this storm


Position and Intensity Table

BASIN ISO_TIME_________ NATURE LAT LON MLC WIND
degrees north degrees east kts
NA 1877-08-24 12:00:00 TS 29.80 -57.60 35
NA 15:00:00 TS 30.06 -57.30 35
NA 18:00:00 TS 30.30 -57.00 35
NA 21:00:00 TS 30.50 -56.70 35
NA 1877-08-25 00:00:00 TS 30.70 -56.40 35
NA 03:00:00 TS 30.95 -56.10 35
NA 06:00:00 TS 31.20 -55.80 35
NA 09:00:00 TS 31.41 -55.51 37
NA 12:00:00 TS 31.60 -55.20 40
NA 15:00:00 TS 31.80 -54.85 40
NA 18:00:00 TS 32.00 -54.50 40
NA 21:00:00 TS 32.20 -54.19 40
NA 1877-08-26 00:00:00 TS 32.40 -53.90 40
NA 03:00:00 TS 32.60 -53.60 40
NA 06:00:00 TS 32.80 -53.30 40
NA 09:00:00 TS 32.99 -53.01 42
NA 12:00:00 TS 33.20 -52.70 45
NA 15:00:00 TS 33.44 -52.36 45
NA 18:00:00 TS 33.70 -52.00 45
NA 21:00:00 TS 33.95 -51.61 45
NA 1877-08-27 00:00:00 TS 34.20 -51.20 45
NA 03:00:00 TS 34.45 -50.79 45
NA 06:00:00 TS 34.70 -50.40 45
NA 09:00:00 TS 34.97 -50.01 45
NA 12:00:00 TS 35.20 -49.70 45
NA 15:00:00 TS 35.32 -49.52 45
NA 18:00:00 TS 35.40 -49.40 45
NA 21:00:00 TS 35.50 -49.25 45
NA 1877-08-28 00:00:00 TS 35.60 -49.10 45
NA 03:00:00 TS 35.70 -48.95 45
NA 06:00:00 TS 35.80 -48.80 45
NA 09:00:00 TS 35.89 -48.64 45
NA 12:00:00 TS 36.00 -48.50 45
NA 15:00:00 TS 36.14 -48.40 42
NA 18:00:00 TS 36.30 -48.30 40
NA 21:00:00 TS 36.45 -48.15 40
NA 1877-08-29 00:00:00 TS 36.60 -48.00 40
NA 03:00:00 TS 36.75 -47.89 40
NA 06:00:00 TS 36.90 -47.80 40
NA 09:00:00 TS 37.04 -47.71 40
NA 12:00:00 TS 37.20 -47.60 40
NA 15:00:00 TS 37.39 -47.46 37
NA 18:00:00 TS 37.60 -47.30 35
NA 21:00:00 TS 37.80 -47.15 35
NA 1877-08-30 00:00:00 TS 38.00 -47.00 35
NA 03:00:00 TS 38.20 -46.84 35
NA 06:00:00 TS 38.40 -46.70 35
NA 09:00:00 TS 38.60 -46.59 35
NA 12:00:00 TS 38.80 -46.50 35

Source Information

Agency Information
USA
TOKYO
CMA
HKO
NEWDELHI
REUNION
BOM
NADI
WELLINGTON
DS824
TD9636
TD9635
NEUMANN
MLC

All available IBTrACS Data

SEASON BASIN SUBBASIN ISO_TIME_________ NATURE LAT LON DIST2LAND LANDFALL IFLAG USA SSHS MLC LAT MLC LON MLC CLASS MLC WIND STORM SPEED STORM DIR
Year degrees north degrees east km km 1 degrees north degrees east kts kts degrees
1877 NA NA 1877-08-24 12:00:00 TS 29.80 -57.60 1509 1509 _____________O -1 29.80 -57.60 TS 35 7 45
1877 NA NA 15:00:00 TS 30.06 -57.30 1553 1553 _____________P -1 30.06 -57.30 TS 35 7 46
1877 NA NA 18:00:00 TS 30.30 -57.00 1587 1587 _____________O -1 30.30 -57.00 TS 35 7 50
1877 NA NA 21:00:00 TS 30.50 -56.70 1622 1622 _____________P -1 30.50 -56.70 TS 35 7 52
1877 NA NA 1877-08-25 00:00:00 TS 30.70 -56.40 1626 1614 _____________O -1 30.70 -56.40 TS 35 7 49
1877 NA NA 03:00:00 TS 30.95 -56.10 1619 1603 _____________P -1 30.95 -56.10 TS 35 7 46
1877 NA NA 06:00:00 TS 31.20 -55.80 1603 1592 _____________O -1 31.20 -55.80 TS 35 7 48
1877 NA NA 09:00:00 TS 31.41 -55.51 1597 1587 _____________P -1 31.41 -55.51 TS 37 7 52
1877 NA NA 12:00:00 TS 31.60 -55.20 1592 1584 _____________O -1 31.60 -55.20 TS 40 7 55
1877 NA NA 15:00:00 TS 31.80 -54.85 1587 1572 _____________P -1 31.80 -54.85 TS 40 7 56
1877 NA NA 18:00:00 TS 32.00 -54.50 1575 1560 _____________O -1 32.00 -54.50 TS 40 7 54
1877 NA NA 21:00:00 TS 32.20 -54.19 1564 1549 _____________P -1 32.20 -54.19 TS 40 6 52
1877 NA NA 1877-08-26 00:00:00 TS 32.40 -53.90 1553 1539 _____________O -1 32.40 -53.90 TS 40 6 51
1877 NA NA 03:00:00 TS 32.60 -53.60 1543 1529 _____________P -1 32.60 -53.60 TS 40 6 52
1877 NA NA 06:00:00 TS 32.80 -53.30 1533 1513 _____________O -1 32.80 -53.30 TS 40 6 52
1877 NA NA 09:00:00 TS 32.99 -53.01 1513 1491 _____________P -1 32.99 -53.01 TS 42 6 52
1877 NA NA 12:00:00 TS 33.20 -52.70 1491 1470 _____________O -1 33.20 -52.70 TS 45 7 50
1877 NA NA 15:00:00 TS 33.44 -52.36 1470 1438 _____________P -1 33.44 -52.36 TS 45 8 49
1877 NA NA 18:00:00 TS 33.70 -52.00 1439 1418 _____________O -1 33.70 -52.00 TS 45 8 51
1877 NA NA 21:00:00 TS 33.95 -51.61 1419 1389 _____________P -1 33.95 -51.61 TS 45 8 53
1877 NA NA 1877-08-27 00:00:00 TS 34.20 -51.20 1390 1371 _____________O -1 34.20 -51.20 TS 45 8 53
1877 NA NA 03:00:00 TS 34.45 -50.79 1372 1343 _____________P -1 34.45 -50.79 TS 45 8 53
1877 NA NA 06:00:00 TS 34.70 -50.40 1344 1317 _____________O -1 34.70 -50.40 TS 45 8 51
1877 NA NA 09:00:00 TS 34.97 -50.01 1317 1299 _____________P -1 34.97 -50.01 TS 45 8 49
1877 NA NA 12:00:00 TS 35.20 -49.70 1301 1292 _____________O -1 35.20 -49.70 TS 45 5 49
1877 NA NA 15:00:00 TS 35.32 -49.52 1294 1283 _____________P -1 35.32 -49.52 TS 45 3 51
1877 NA NA 18:00:00 TS 35.40 -49.40 1285 1276 _____________O -1 35.40 -49.40 TS 45 3 51
1877 NA NA 21:00:00 TS 35.50 -49.25 1278 1268 _____________P -1 35.50 -49.25 TS 45 3 51
1877 NA NA 1877-08-28 00:00:00 TS 35.60 -49.10 1270 1261 _____________O -1 35.60 -49.10 TS 45 3 51
1877 NA NA 03:00:00 TS 35.70 -48.95 1264 1253 _____________P -1 35.70 -48.95 TS 45 3 51
1877 NA NA 06:00:00 TS 35.80 -48.80 1255 1247 _____________O -1 35.80 -48.80 TS 45 3 53
1877 NA NA 09:00:00 TS 35.89 -48.64 1249 1239 _____________P -1 35.89 -48.64 TS 45 3 51
1877 NA NA 12:00:00 TS 36.00 -48.50 1241 1231 _____________O -1 36.00 -48.50 TS 45 3 38
1877 NA NA 15:00:00 TS 36.14 -48.40 1233 1215 _____________P -1 36.14 -48.40 TS 42 3 28
1877 NA NA 18:00:00 TS 36.30 -48.30 1215 1204 _____________O -1 36.30 -48.30 TS 40 4 33
1877 NA NA 21:00:00 TS 36.45 -48.15 1196 1192 _____________P -1 36.45 -48.15 TS 40 4 39
1877 NA NA 1877-08-29 00:00:00 TS 36.60 -48.00 1192 1181 _____________O -1 36.60 -48.00 TS 40 4 34
1877 NA NA 03:00:00 TS 36.75 -47.89 1184 1166 _____________P -1 36.75 -47.89 TS 40 3 27
1877 NA NA 06:00:00 TS 36.90 -47.80 1166 1156 _____________O -1 36.90 -47.80 TS 40 3 27
1877 NA NA 09:00:00 TS 37.04 -47.71 1159 1142 _____________P -1 37.04 -47.71 TS 40 3 27
1877 NA NA 12:00:00 TS 37.20 -47.60 1142 1125 _____________O -1 37.20 -47.60 TS 40 4 29
1877 NA NA 15:00:00 TS 37.39 -47.46 1125 1111 _____________P -1 37.39 -47.46 TS 37 5 31
1877 NA NA 18:00:00 TS 37.60 -47.30 1111 1094 _____________O -1 37.60 -47.30 TS 35 5 31
1877 NA NA 21:00:00 TS 37.80 -47.15 1098 1082 _____________P -1 37.80 -47.15 TS 35 5 31
1877 NA NA 1877-08-30 00:00:00 TS 38.00 -47.00 1082 1066 _____________O -1 38.00 -47.00 TS 35 5 31
1877 NA NA 03:00:00 TS 38.20 -46.84 1070 1054 _____________P -1 38.20 -46.84 TS 35 5 31
1877 NA NA 06:00:00 TS 38.40 -46.70 1054 1038 _____________O -1 38.40 -46.70 TS 35 4 26
1877 NA NA 09:00:00 TS 38.60 -46.59 1038 1023 _____________P -1 38.60 -46.59 TS 35 4 21
1877 NA NA 12:00:00 TS 38.80 -46.50 1023 _____________O -1 38.80 -46.50 TS 35 4 20